createdAt,value
2022-10-26T00:02:29.811Z,14.80
2022-10-26T00:05:15.422Z,14.80
2022-10-26T00:08:01.786Z,14.80
2022-10-26T00:10:47.132Z,14.70
2022-10-26T00:13:33.509Z,14.70
2022-10-26T00:16:26.305Z,14.70
2022-10-26T00:19:12.014Z,14.70
2022-10-26T00:21:57.512Z,14.70
2022-10-26T00:24:43.679Z,14.80
2022-10-26T00:27:30.204Z,14.80
2022-10-26T00:30:16.148Z,14.80
2022-10-26T00:33:01.714Z,14.80
2022-10-26T00:35:54.271Z,14.80
2022-10-26T00:38:45.771Z,14.80
2022-10-26T00:41:33.751Z,14.80
2022-10-26T00:44:46.971Z,14.80
2022-10-26T00:47:45.314Z,14.80
2022-10-26T00:50:38.902Z,14.80
2022-10-26T00:53:24.938Z,14.80
2022-10-26T00:56:10.848Z,14.70
2022-10-26T00:59:02.085Z,14.70
2022-10-26T01:01:49.100Z,14.70
2022-10-26T01:04:35.187Z,14.70
2022-10-26T01:10:14.084Z,14.70
2022-10-26T01:13:00.642Z,14.70
2022-10-26T01:15:58.882Z,14.70
2022-10-26T01:19:20.900Z,14.70
2022-10-26T01:22:15.447Z,14.70
2022-10-26T01:25:07.163Z,14.70
2022-10-26T01:27:53.546Z,14.70
2022-10-26T01:30:48.181Z,14.70
2022-10-26T01:33:49.588Z,14.70
2022-10-26T01:36:48.099Z,14.70
2022-10-26T01:39:45.838Z,14.70
2022-10-26T01:42:32.443Z,14.70
2022-10-26T01:45:18.701Z,14.70
2022-10-26T01:48:04.989Z,14.70
2022-10-26T01:50:53.902Z,14.70
2022-10-26T01:53:46.578Z,14.70
2022-10-26T01:56:36.737Z,14.60
2022-10-26T01:59:27.984Z,14.70
2022-10-26T02:02:27.110Z,14.70
2022-10-26T02:05:25.590Z,14.70
2022-10-26T02:08:20.825Z,14.60
2022-10-26T02:11:08.878Z,14.60
2022-10-26T02:14:19.163Z,14.60
2022-10-26T02:17:08.465Z,14.60
2022-10-26T02:20:01.847Z,14.60
2022-10-26T02:22:50.345Z,14.60
2022-10-26T02:25:41.086Z,14.60
2022-10-26T02:28:33.040Z,14.60
2022-10-26T02:31:20.775Z,14.60
2022-10-26T02:34:10.579Z,14.60
2022-10-26T02:37:00.596Z,14.60
2022-10-26T02:39:48.096Z,14.70
2022-10-26T02:42:34.442Z,14.70
2022-10-26T02:45:34.808Z,14.70
2022-10-26T02:48:21.155Z,14.70
2022-10-26T02:51:09.707Z,14.40
2022-10-26T02:54:08.807Z,14.20
2022-10-26T02:57:15.927Z,14.10
2022-10-26T03:00:02.892Z,14.10
2022-10-26T03:02:55.275Z,14.20
2022-10-26T03:05:43.253Z,14.30
2022-10-26T03:11:19.841Z,14.50
2022-10-26T03:14:05.415Z,14.60
2022-10-26T03:19:37.480Z,14.60
2022-10-26T03:22:23.555Z,14.60
2022-10-26T03:25:09.781Z,14.60
2022-10-26T03:28:03.933Z,14.60
2022-10-26T03:30:49.618Z,14.40
2022-10-26T03:33:35.276Z,14.30
2022-10-26T03:36:20.768Z,14.20
2022-10-26T03:39:06.260Z,14.20
2022-10-26T03:41:51.759Z,14.20
2022-10-26T03:44:37.489Z,14.20
2022-10-26T03:47:23.087Z,14.10
2022-10-26T03:50:09.173Z,14.00
2022-10-26T03:52:54.566Z,14.00
2022-10-26T03:55:40.130Z,14.10
2022-10-26T04:01:17.172Z,14.30
2022-10-26T04:04:04.212Z,14.40
2022-10-26T04:06:49.975Z,14.50
2022-10-26T04:09:35.359Z,14.60
2022-10-26T04:12:21.011Z,14.60
2022-10-26T04:15:07.709Z,14.60
2022-10-26T04:17:58.394Z,14.70
2022-10-26T04:20:43.873Z,14.70
2022-10-26T04:23:30.131Z,14.80
2022-10-26T04:26:15.851Z,14.80
2022-10-26T04:29:02.392Z,14.80
2022-10-26T04:31:48.677Z,14.80
2022-10-26T04:34:34.249Z,14.80
2022-10-26T04:37:19.822Z,14.80
2022-10-26T04:42:57.739Z,14.90
2022-10-26T04:45:43.748Z,14.90
2022-10-26T04:48:29.421Z,15.00
2022-10-26T04:51:14.928Z,15.00
2022-10-26T04:54:00.514Z,15.00
2022-10-26T04:59:37.818Z,15.00
2022-10-26T05:02:24.283Z,15.00
2022-10-26T05:05:14.175Z,15.00
2022-10-26T05:08:01.557Z,15.00
2022-10-26T05:10:50.645Z,15.00
2022-10-26T05:13:36.446Z,15.00
2022-10-26T05:16:21.973Z,15.10
2022-10-26T05:19:07.653Z,15.10
2022-10-26T05:21:53.533Z,15.10
2022-10-26T05:24:39.344Z,15.10
2022-10-26T05:27:24.695Z,15.10
2022-10-26T05:30:10.694Z,15.00
2022-10-26T05:32:59.428Z,15.00
2022-10-26T05:35:45.128Z,15.00
2022-10-26T05:38:30.741Z,15.00
2022-10-26T05:41:16.216Z,15.10
2022-10-26T05:44:01.799Z,15.10
2022-10-26T05:49:38.143Z,15.10
2022-10-26T05:52:23.777Z,15.20
2022-10-26T05:55:10.684Z,15.20
2022-10-26T05:57:57.058Z,15.10
2022-10-26T06:01:32.031Z,15.10
2022-10-26T06:04:20.968Z,15.10
2022-10-26T06:07:12.729Z,15.10
2022-10-26T06:09:58.753Z,15.00
2022-10-26T06:12:46.260Z,15.10
2022-10-26T06:15:35.883Z,15.00
2022-10-26T06:18:28.857Z,15.00
2022-10-26T06:21:20.357Z,15.00
2022-10-26T06:24:18.276Z,15.00
2022-10-26T06:27:18.713Z,15.10
2022-10-26T06:30:11.793Z,15.10
2022-10-26T06:33:06.579Z,15.10
2022-10-26T06:36:18.058Z,15.20
2022-10-26T06:39:08.212Z,15.20
2022-10-26T06:42:00.165Z,15.20
2022-10-26T06:44:49.810Z,15.20
2022-10-26T06:47:43.185Z,15.20
2022-10-26T06:50:34.605Z,15.30
2022-10-26T06:53:23.680Z,15.30
2022-10-26T06:56:12.376Z,15.30
2022-10-26T06:59:06.293Z,15.30
2022-10-26T07:01:52.720Z,15.30
2022-10-26T07:04:38.229Z,15.40
2022-10-26T07:07:26.741Z,15.40
2022-10-26T07:10:13.733Z,15.50
2022-10-26T07:12:59.132Z,15.60
2022-10-26T07:15:45.077Z,15.70
2022-10-26T07:18:30.570Z,15.80
2022-10-26T07:21:16.108Z,15.90
2022-10-26T07:24:01.693Z,15.90
2022-10-26T07:26:47.114Z,16.00
2022-10-26T07:29:35.292Z,16.10
2022-10-26T07:32:20.990Z,16.10
2022-10-26T07:35:06.850Z,16.20
2022-10-26T07:37:57.056Z,16.20
2022-10-26T07:40:42.481Z,16.20
2022-10-26T07:43:28.399Z,16.20
2022-10-26T07:46:14.861Z,16.20
2022-10-26T07:49:00.240Z,16.30
2022-10-26T07:51:46.042Z,16.30
2022-10-26T07:54:32.147Z,16.40
2022-10-26T07:57:17.782Z,16.40
2022-10-26T08:00:06.213Z,16.50
2022-10-26T08:02:52.147Z,16.50
2022-10-26T08:05:37.896Z,16.60
2022-10-26T08:08:23.767Z,16.70
2022-10-26T08:11:09.284Z,16.80
2022-10-26T08:13:55.516Z,16.80
2022-10-26T08:16:41.461Z,16.80
2022-10-26T08:19:27.090Z,16.90
2022-10-26T08:22:12.658Z,16.90
2022-10-26T08:24:58.535Z,17.00
2022-10-26T08:27:44.582Z,17.10
2022-10-26T08:30:31.630Z,17.10
2022-10-26T08:33:17.303Z,17.20
2022-10-26T08:36:05.671Z,17.30
2022-10-26T08:38:52.700Z,17.20
2022-10-26T08:41:44.985Z,17.30
2022-10-26T08:44:45.809Z,17.40
2022-10-26T08:47:40.086Z,17.40
2022-10-26T08:50:32.102Z,17.40
2022-10-26T08:53:27.636Z,17.40
2022-10-26T08:56:18.989Z,17.50
2022-10-26T08:59:25.309Z,17.40
2022-10-26T09:02:15.728Z,17.50
2022-10-26T09:05:01.361Z,17.50
2022-10-26T09:08:11.829Z,17.50
2022-10-26T09:11:26.378Z,17.50
2022-10-26T09:14:29.669Z,17.50
2022-10-26T09:17:45.096Z,17.50
2022-10-26T09:20:40.008Z,17.60
2022-10-26T09:23:47.778Z,17.70
2022-10-26T09:26:41.218Z,17.80
2022-10-26T09:29:36.768Z,18.00
2022-10-26T09:32:39.337Z,18.20
2022-10-26T09:35:43.844Z,18.30
2022-10-26T09:38:40.091Z,18.40
2022-10-26T09:41:33.324Z,18.50
2022-10-26T09:44:29.649Z,18.60
2022-10-26T09:47:33.411Z,18.80
2022-10-26T09:50:36.399Z,18.80
2022-10-26T09:53:22.321Z,19.00
2022-10-26T09:56:13.016Z,19.20
2022-10-26T09:59:04.444Z,19.30
2022-10-26T10:01:50.285Z,19.50
2022-10-26T10:04:35.927Z,19.60
2022-10-26T10:07:21.381Z,19.60
2022-10-26T10:10:16.648Z,19.70
2022-10-26T10:13:20.423Z,19.90
2022-10-26T10:16:13.715Z,20.10
2022-10-26T10:19:01.036Z,20.20
2022-10-26T10:21:50.730Z,20.40
2022-10-26T10:24:39.931Z,20.50
2022-10-26T10:27:26.297Z,20.60
2022-10-26T10:30:27.531Z,20.90
2022-10-26T10:33:13.406Z,21.10
2022-10-26T10:35:59.076Z,21.30
2022-10-26T10:38:46.583Z,21.50
2022-10-26T10:41:39.324Z,21.80
2022-10-26T10:44:29.834Z,22.10
2022-10-26T10:47:21.729Z,22.30
2022-10-26T10:50:19.767Z,22.60
2022-10-26T10:53:19.555Z,22.80
2022-10-26T10:56:43.746Z,22.90
2022-10-26T10:59:44.367Z,23.10
2022-10-26T11:02:41.686Z,23.40
2022-10-26T11:05:36.450Z,23.60
2022-10-26T11:08:49.138Z,23.90
2022-10-26T11:11:54.851Z,24.20
2022-10-26T11:14:49.683Z,24.40
2022-10-26T11:18:05.186Z,24.50
2022-10-26T11:21:13.176Z,24.70
2022-10-26T11:24:13.782Z,24.80
2022-10-26T11:27:11.987Z,25.10
2022-10-26T11:30:07.375Z,25.40
2022-10-26T11:33:36.303Z,25.50
2022-10-26T11:36:26.174Z,25.60
2022-10-26T11:39:43.002Z,25.80
2022-10-26T11:43:01.948Z,26.20
2022-10-26T11:46:01.636Z,27.30
2022-10-26T11:48:50.205Z,28.60
2022-10-26T11:51:39.002Z,30.20
2022-10-26T11:54:31.845Z,31.80
2022-10-26T11:57:18.044Z,33.00
2022-10-26T12:00:08.734Z,34.10
2022-10-26T12:03:09.005Z,34.10
2022-10-26T12:05:54.800Z,34.80
2022-10-26T12:08:48.777Z,35.30
2022-10-26T12:11:43.225Z,34.30
2022-10-26T12:14:37.885Z,35.70
2022-10-26T12:17:35.173Z,36.00
2022-10-26T12:20:52.986Z,36.60
2022-10-26T12:23:53.261Z,36.10
2022-10-26T12:26:39.850Z,35.80
2022-10-26T12:29:32.521Z,35.00
2022-10-26T12:32:33.316Z,35.20
2022-10-26T12:35:38.789Z,34.70
2022-10-26T12:38:24.123Z,34.80
2022-10-26T12:41:22.038Z,33.40
2022-10-26T12:44:37.562Z,33.20
2022-10-26T12:47:32.226Z,33.30
2022-10-26T12:50:24.836Z,33.20
2022-10-26T12:53:17.579Z,33.20
2022-10-26T12:56:09.725Z,32.90
2022-10-26T12:59:20.032Z,33.00
2022-10-26T13:02:36.410Z,32.40
2022-10-26T13:05:24.888Z,32.30
2022-10-26T13:08:13.551Z,32.70
2022-10-26T13:11:13.102Z,32.90
2022-10-26T13:14:05.326Z,33.80
2022-10-26T13:16:51.203Z,34.20
2022-10-26T13:19:46.923Z,34.50
2022-10-26T13:22:33.355Z,33.20
2022-10-26T13:25:31.787Z,33.20
2022-10-26T13:28:42.149Z,31.60
2022-10-26T13:31:34.366Z,31.00
2022-10-26T13:34:22.178Z,31.50
2022-10-26T13:37:22.882Z,31.50
2022-10-26T13:40:11.970Z,31.70
2022-10-26T13:43:02.423Z,31.70
2022-10-26T13:45:54.593Z,31.30
2022-10-26T13:48:41.636Z,31.10
2022-10-26T13:51:43.090Z,30.50
2022-10-26T13:54:42.863Z,30.40
2022-10-26T13:57:43.101Z,29.90
2022-10-26T14:00:29.064Z,29.10
2022-10-26T14:03:18.835Z,29.60
2022-10-26T14:06:22.787Z,29.80
2022-10-26T14:09:16.980Z,30.40
2022-10-26T14:12:03.060Z,30.80
2022-10-26T14:14:50.204Z,30.50
2022-10-26T14:17:36.126Z,30.20
2022-10-26T14:20:24.665Z,30.30
2022-10-26T14:23:32.921Z,30.10
2022-10-26T14:26:28.815Z,29.50
2022-10-26T14:29:20.439Z,29.30
2022-10-26T14:32:33.559Z,29.40
2022-10-26T14:35:33.472Z,29.30
2022-10-26T14:38:31.289Z,28.80
2022-10-26T14:41:18.148Z,28.10
2022-10-26T14:44:03.862Z,27.60
2022-10-26T14:46:49.727Z,27.10
2022-10-26T14:49:35.632Z,26.50
2022-10-26T14:52:36.578Z,26.00
2022-10-26T14:55:23.901Z,25.70
2022-10-26T14:58:24.189Z,25.50
2022-10-26T15:01:22.884Z,25.20
2022-10-26T15:04:33.181Z,24.90
2022-10-26T15:07:19.321Z,24.80
2022-10-26T15:10:05.982Z,24.70
2022-10-26T15:12:51.965Z,24.50
2022-10-26T15:15:39.740Z,24.10
2022-10-26T15:18:28.173Z,23.90
2022-10-26T15:21:22.891Z,23.80
2022-10-26T15:24:32.074Z,23.70
2022-10-26T15:27:22.156Z,23.80
2022-10-26T15:30:21.479Z,23.80
2022-10-26T15:33:20.344Z,23.80
2022-10-26T15:36:18.950Z,23.70
2022-10-26T15:39:04.759Z,23.60
2022-10-26T15:41:52.428Z,23.50
2022-10-26T15:44:38.207Z,23.50
2022-10-26T15:47:30.651Z,23.50
2022-10-26T15:50:22.116Z,23.40
2022-10-26T15:53:15.445Z,23.30
2022-10-26T15:56:01.105Z,23.30
2022-10-26T15:58:47.406Z,23.20
2022-10-26T16:01:33.148Z,23.10
2022-10-26T16:04:19.021Z,22.70
2022-10-26T16:07:07.077Z,22.50
2022-10-26T16:09:53.481Z,22.20
2022-10-26T16:12:39.436Z,22.10
2022-10-26T16:15:25.403Z,21.90
2022-10-26T16:18:11.182Z,21.80
2022-10-26T16:20:57.017Z,21.60
2022-10-26T16:23:46.018Z,21.50
2022-10-26T16:26:32.009Z,21.40
2022-10-26T16:29:17.873Z,21.30
2022-10-26T16:32:03.698Z,21.20
2022-10-26T16:34:49.427Z,21.10
2022-10-26T16:37:35.825Z,21.00
2022-10-26T16:40:21.706Z,20.80
2022-10-26T16:43:07.645Z,20.60
2022-10-26T16:45:53.745Z,20.50
2022-10-26T16:48:40.640Z,20.30
2022-10-26T16:51:29.785Z,20.20
2022-10-26T16:54:15.733Z,20.00
2022-10-26T16:57:01.443Z,20.00
2022-10-26T16:59:46.893Z,19.90
2022-10-26T17:02:32.865Z,19.90
2022-10-26T17:05:18.416Z,19.70
2022-10-26T17:08:05.635Z,19.70
2022-10-26T17:10:52.010Z,19.60
2022-10-26T17:13:40.897Z,19.50
2022-10-26T17:16:26.759Z,19.40
2022-10-26T17:19:12.681Z,19.30
2022-10-26T17:21:59.375Z,19.20
2022-10-26T17:24:45.302Z,19.10
2022-10-26T17:27:31.803Z,19.10
2022-10-26T17:30:17.389Z,18.90
2022-10-26T17:33:04.589Z,18.90
2022-10-26T17:35:53.725Z,18.90
2022-10-26T17:38:42.047Z,18.80
2022-10-26T17:41:28.076Z,18.80
2022-10-26T17:44:14.008Z,18.70
2022-10-26T17:46:59.768Z,18.70
2022-10-26T17:49:45.037Z,18.60
2022-10-26T17:52:31.170Z,18.50
2022-10-26T17:55:16.845Z,18.40
2022-10-26T17:58:02.303Z,18.40
2022-10-26T18:00:49.939Z,18.30
2022-10-26T18:03:36.707Z,18.30
2022-10-26T18:06:23.357Z,18.20
2022-10-26T18:09:09.003Z,18.00
2022-10-26T18:11:56.317Z,17.70
2022-10-26T18:14:42.020Z,17.60
2022-10-26T18:17:27.688Z,17.60
2022-10-26T18:20:13.283Z,17.70
2022-10-26T18:22:59.481Z,17.70
2022-10-26T18:25:45.001Z,17.70
2022-10-26T18:28:31.572Z,17.60
2022-10-26T18:31:21.860Z,17.50
2022-10-26T18:34:07.607Z,17.50
2022-10-26T18:36:54.548Z,17.50
2022-10-26T18:39:40.369Z,17.50
2022-10-26T18:42:25.968Z,17.50
2022-10-26T18:45:14.297Z,17.50
2022-10-26T18:47:59.945Z,17.50
2022-10-26T18:50:46.592Z,17.40
2022-10-26T18:53:34.945Z,17.40
2022-10-26T18:56:21.955Z,17.40
2022-10-26T18:59:08.047Z,17.30
2022-10-26T19:01:54.628Z,17.30
2022-10-26T19:04:42.798Z,17.30
2022-10-26T19:07:30.238Z,17.20
2022-10-26T19:10:16.128Z,17.20
2022-10-26T19:13:06.620Z,17.10
2022-10-26T19:16:12.630Z,17.00
2022-10-26T19:19:08.935Z,17.00
2022-10-26T19:21:54.726Z,16.90
2022-10-26T19:24:40.461Z,16.90
2022-10-26T19:27:26.457Z,16.80
2022-10-26T19:30:13.075Z,16.70
2022-10-26T19:33:00.065Z,16.70
2022-10-26T19:35:45.890Z,16.60
2022-10-26T19:38:32.137Z,16.60
2022-10-26T19:41:18.180Z,16.60
2022-10-26T19:44:07.586Z,16.60
2022-10-26T19:46:54.022Z,16.50
2022-10-26T19:49:39.893Z,16.50
2022-10-26T19:52:25.695Z,16.50
2022-10-26T19:55:11.656Z,16.40
2022-10-26T19:57:57.744Z,16.40
2022-10-26T20:00:44.201Z,16.40
2022-10-26T20:03:30.822Z,16.20
2022-10-26T20:06:18.490Z,16.20
2022-10-26T20:09:04.411Z,16.10
2022-10-26T20:11:51.683Z,16.10
2022-10-26T20:14:37.441Z,16.10
2022-10-26T20:17:27.538Z,16.10
2022-10-26T20:20:14.202Z,16.10
2022-10-26T20:23:00.424Z,16.00
2022-10-26T20:25:48.148Z,16.00
2022-10-26T20:28:34.389Z,15.90
2022-10-26T20:31:20.119Z,15.90
2022-10-26T20:34:05.891Z,15.90
2022-10-26T20:36:51.430Z,15.90
2022-10-26T20:39:37.908Z,15.80
2022-10-26T20:42:25.685Z,15.80
2022-10-26T20:45:18.774Z,15.80
2022-10-26T20:48:04.838Z,15.80
2022-10-26T20:50:56.770Z,15.80
2022-10-26T20:54:12.870Z,15.80
2022-10-26T20:57:02.156Z,15.80
2022-10-26T20:59:52.601Z,15.70
2022-10-26T21:02:38.303Z,15.60
2022-10-26T21:05:26.896Z,15.70
2022-10-26T21:08:14.200Z,15.60
2022-10-26T21:11:02.077Z,15.60
2022-10-26T21:13:49.735Z,15.60
2022-10-26T21:16:35.549Z,15.60
2022-10-26T21:19:21.607Z,15.60
2022-10-26T21:22:07.388Z,15.60
2022-10-26T21:24:52.961Z,15.50
2022-10-26T21:27:38.928Z,15.50
2022-10-26T21:30:27.979Z,15.40
2022-10-26T21:33:13.736Z,15.40
2022-10-26T21:36:00.480Z,15.30
2022-10-26T21:38:51.144Z,15.30
2022-10-26T21:41:37.691Z,15.20
2022-10-26T21:44:39.838Z,15.10
2022-10-26T21:47:26.307Z,15.00
2022-10-26T21:50:11.871Z,14.80
2022-10-26T21:52:57.648Z,14.80
2022-10-26T21:55:43.330Z,14.80
2022-10-26T21:58:29.648Z,14.90
2022-10-26T22:01:20.979Z,14.90
2022-10-26T22:04:06.648Z,15.00
2022-10-26T22:06:54.850Z,15.10
2022-10-26T22:09:49.564Z,15.00
2022-10-26T22:12:46.944Z,15.00
2022-10-26T22:15:32.730Z,15.00
2022-10-26T22:18:18.303Z,15.00
2022-10-26T22:21:05.883Z,15.10
2022-10-26T22:23:52.670Z,15.10
2022-10-26T22:26:43.194Z,15.10
2022-10-26T22:29:29.293Z,15.00
2022-10-26T22:32:14.749Z,15.00
2022-10-26T22:35:10.858Z,15.10
2022-10-26T22:38:03.040Z,15.10
2022-10-26T22:40:56.977Z,15.10
2022-10-26T22:43:43.818Z,15.10
2022-10-26T22:46:29.848Z,15.00
2022-10-26T22:49:15.874Z,15.00
2022-10-26T22:52:01.438Z,14.90
2022-10-26T22:54:47.456Z,14.80
2022-10-26T22:57:33.165Z,14.80
2022-10-26T23:00:19.191Z,14.70
2022-10-26T23:03:05.445Z,14.70
2022-10-26T23:05:51.184Z,14.60
2022-10-26T23:08:36.681Z,14.70
2022-10-26T23:11:24.723Z,14.60
2022-10-26T23:14:10.121Z,14.60
2022-10-26T23:16:55.679Z,14.60
2022-10-26T23:19:41.936Z,14.70
2022-10-26T23:22:27.712Z,14.80
2022-10-26T23:25:13.288Z,14.80
2022-10-26T23:27:58.901Z,14.80
2022-10-26T23:30:47.900Z,14.80
2022-10-26T23:33:33.774Z,14.80
2022-10-26T23:36:20.936Z,14.80
2022-10-26T23:39:06.349Z,14.80
2022-10-26T23:41:52.209Z,14.80
2022-10-26T23:44:38.200Z,14.70
2022-10-26T23:47:26.292Z,14.70
2022-10-26T23:50:12.187Z,14.70
2022-10-26T23:52:57.884Z,14.60
2022-10-26T23:55:45.024Z,14.60
2022-10-26T23:58:30.555Z,14.50
